Time;durP1;ratioP1;P1;durP2;ratioP2;P2;SDS_P1;SDS_P2;PMS_P1;PMS_P2;Temp;Humidity;BMP_temperature;BMP_pressure;BME280_temperature;BME280_humidity;BME280_pressure;Samples;Min_cycle;Max_cycle;Signal;HPM_P1;HPM_P2
2021/08/12 00:02:04;;;;;;;5.65;4.57;;;15.00;99.90;;;;;;4969591;28;20451;-70
2021/08/12 00:04:31;;;;;;;6.57;5.97;;;14.80;99.90;;;;;;4987156;28;20070;-70
2021/08/12 00:06:57;;;;;;;5.82;5.20;;;14.80;99.90;;;;;;4987573;28;20054;-70
2021/08/12 00:09:23;;;;;;;6.88;6.28;;;14.80;99.90;;;;;;4988302;28;20057;-70
2021/08/12 00:11:49;;;;;;;6.28;5.68;;;14.70;99.90;;;;;;4954670;28;20046;-70
2021/08/12 00:14:15;;;;;;;7.57;6.88;;;14.80;99.90;;;;;;4986860;28;20042;-70
2021/08/12 00:16:41;;;;;;;7.00;6.30;;;14.80;99.90;;;;;;4987167;28;20046;-70
2021/08/12 00:19:11;;;;;;;6.82;6.13;;;14.80;99.90;;;;;;4970165;28;20057;-70
2021/08/12 00:21:38;;;;;;;7.80;7.00;;;14.80;99.90;;;;;;4986553;28;20047;-70
2021/08/12 00:24:04;;;;;;;7.95;6.03;;;14.80;99.90;;;;;;4986968;28;20412;-70
2021/08/12 00:26:30;;;;;;;7.47;6.78;;;14.90;99.90;;;;;;4986592;28;20114;-70
2021/08/12 00:28:55;;;;;;;7.63;6.78;;;15.00;99.90;;;;;;4988123;28;20042;-70
2021/08/12 00:31:21;;;;;;;7.43;6.72;;;14.90;99.90;;;;;;4981929;28;20084;-70
2021/08/12 00:33:47;;;;;;;8.80;6.22;;;14.90;99.90;;;;;;4987482;28;20042;-70
2021/08/12 00:36:13;;;;;;;8.15;6.20;;;14.90;99.90;;;;;;4986409;28;20137;-70
2021/08/12 00:38:38;;;;;;;6.75;6.15;;;14.90;99.90;;;;;;4986783;28;20423;-70
2021/08/12 00:41:04;;;;;;;7.15;6.43;;;14.90;99.90;;;;;;4986178;28;20050;-71
2021/08/12 00:43:30;;;;;;;5.68;5.18;;;14.90;99.90;;;;;;4986771;28;20051;-71
2021/08/12 00:45:59;;;;;;;8.18;6.05;;;14.70;99.90;;;;;;4986118;28;20047;-70
2021/08/12 00:48:25;;;;;;;8.40;6.53;;;14.50;99.90;;;;;;4985649;28;20057;-70
2021/08/12 00:50:51;;;;;;;7.13;6.43;;;14.50;99.90;;;;;;4986846;28;20046;-70
2021/08/12 00:53:17;;;;;;;6.13;5.53;;;14.40;99.90;;;;;;4987238;28;20097;-70
2021/08/12 00:55:45;;;;;;;5.53;5.03;;;14.40;99.90;;;;;;4986604;28;20069;-70
2021/08/12 00:58:18;;;;;;;7.38;6.43;;;14.40;99.90;;;;;;4986735;28;20054;-70
2021/08/12 01:00:46;;;;;;;6.88;5.93;;;14.40;99.90;;;;;;4968680;28;20050;-69
2021/08/12 01:03:17;;;;;;;6.63;5.93;;;14.40;99.90;;;;;;4968615;28;20116;-69
2021/08/12 01:05:42;;;;;;;8.55;7.75;;;14.40;99.90;;;;;;4985729;28;20054;-70
2021/08/12 01:08:19;;;;;;;7.25;5.93;;;14.30;99.90;;;;;;4985901;28;20046;-70
2021/08/12 01:11:20;;;;;;;6.28;5.68;;;14.40;99.90;;;;;;4980427;28;20050;-70
2021/08/12 01:14:02;;;;;;;7.95;7.15;;;14.50;99.90;;;;;;4979244;28;20059;-69
2021/08/12 01:16:39;;;;;;;7.40;6.65;;;14.40;99.90;;;;;;4968707;28;20070;-70
2021/08/12 01:19:28;;;;;;;8.35;6.55;;;14.40;99.90;;;;;;4974371;28;20042;-70
2021/08/12 01:22:04;;;;;;;7.15;6.45;;;14.40;99.90;;;;;;4985634;28;20043;-70
2021/08/12 01:24:36;;;;;;;8.30;6.25;;;14.20;99.90;;;;;;4985982;28;20047;-69
2021/08/12 01:27:06;;;;;;;7.28;6.38;;;14.20;99.90;;;;;;4985673;28;20046;-70
2021/08/12 01:29:37;;;;;;;8.27;7.15;;;14.20;99.90;;;;;;4985747;28;20057;-69
2021/08/12 01:32:25;;;;;;;7.70;6.95;;;14.20;99.90;;;;;;4979083;28;20073;-69
2021/08/12 01:35:08;;;;;;;7.93;6.53;;;14.20;99.90;;;;;;4985437;28;20054;-69
2021/08/12 01:37:38;;;;;;;7.38;6.10;;;14.20;99.90;;;;;;4986690;28;20047;-69
2021/08/12 01:40:10;;;;;;;6.68;6.05;;;14.20;99.90;;;;;;4986076;28;20053;-69
2021/08/12 01:42:38;;;;;;;7.70;7.00;;;14.20;99.90;;;;;;4986502;28;20096;-70
2021/08/12 01:45:05;;;;;;;8.60;7.70;;;14.20;99.90;;;;;;4986598;28;20069;-70
2021/08/12 01:47:32;;;;;;;9.77;8.77;;;14.30;99.90;;;;;;4985554;28;20047;-70
2021/08/12 01:50:01;;;;;;;10.27;9.30;;;14.30;99.90;;;;;;4985510;28;20126;-70
2021/08/12 01:52:30;;;;;;;11.60;10.50;;;14.40;99.90;;;;;;4984877;28;20046;-70
2021/08/12 01:54:57;;;;;;;10.00;8.93;;;14.30;99.90;;;;;;4985239;28;20055;-72
2021/08/12 01:57:24;;;;;;;10.30;9.30;;;14.30;99.90;;;;;;4984962;28;20408;-71
2021/08/12 01:59:52;;;;;;;13.77;12.27;;;14.20;99.90;;;;;;4985689;28;20043;-70
2021/08/12 02:02:18;;;;;;;11.85;9.43;;;14.20;99.90;;;;;;4985275;28;20057;-71
2021/08/12 02:04:45;;;;;;;11.27;10.20;;;14.20;99.90;;;;;;4984859;28;20042;-70
2021/08/12 02:07:12;;;;;;;12.20;10.98;;;14.00;99.90;;;;;;4986150;28;20054;-71
2021/08/12 02:09:38;;;;;;;10.82;9.73;;;13.90;99.90;;;;;;4986027;28;20047;-70
2021/08/12 02:12:04;;;;;;;14.02;12.63;;;13.80;99.90;;;;;;4969021;28;20114;-70
2021/08/12 02:14:32;;;;;;;12.60;11.25;;;13.70;99.90;;;;;;4974860;28;20047;-70
2021/08/12 02:16:58;;;;;;;10.18;9.13;;;13.70;99.90;;;;;;4985578;28;20085;-70
2021/08/12 02:19:24;;;;;;;9.60;8.55;;;13.70;99.90;;;;;;4984725;28;20042;-70
2021/08/12 02:21:58;;;;;;;9.77;8.10;;;13.70;99.90;;;;;;4985081;28;20046;-70
2021/08/12 02:24:56;;;;;;;9.35;8.25;;;13.70;99.90;;;;;;4973045;28;20102;-70
2021/08/12 02:27:24;;;;;;;9.05;7.72;;;13.60;99.90;;;;;;4953492;28;20074;-70
2021/08/12 02:29:52;;;;;;;6.80;6.10;;;13.60;99.90;;;;;;4984987;28;20046;-70
2021/08/12 02:32:20;;;;;;;7.72;6.03;;;13.60;99.90;;;;;;4972677;28;20039;-70
2021/08/12 02:34:49;;;;;;;6.05;5.45;;;13.40;99.90;;;;;;4985165;28;20043;-70
2021/08/12 02:37:18;;;;;;;7.15;5.38;;;13.40;99.90;;;;;;4985589;28;20125;-70
2021/08/12 02:39:46;;;;;;;9.05;7.85;;;13.40;99.90;;;;;;4984804;28;20110;-70
2021/08/12 02:42:13;;;;;;;5.90;5.40;;;13.50;99.90;;;;;;4967228;28;20050;-70
2021/08/12 02:44:41;;;;;;;7.13;6.43;;;13.50;99.90;;;;;;4985130;28;20043;-70
2021/08/12 02:47:08;;;;;;;11.23;8.30;;;13.50;99.90;;;;;;4985630;28;20119;-70
2021/08/12 02:49:45;;;;;;;19.02;16.77;;;13.50;99.90;;;;;;4984925;28;20056;-70
2021/08/12 02:52:14;;;;;;;16.70;12.63;;;13.60;99.90;;;;;;4984581;28;20054;-70
2021/08/12 02:54:46;;;;;;;22.85;19.70;;;13.70;99.90;;;;;;4967109;28;20050;-70
2021/08/12 02:57:13;;;;;;;19.48;17.52;;;13.70;99.90;;;;;;4984827;28;20051;-70
2021/08/12 02:59:42;;;;;;;19.92;17.35;;;13.80;99.90;;;;;;4967460;28;20069;-70
2021/08/12 03:02:09;;;;;;;20.08;16.85;;;13.80;99.90;;;;;;4984742;28;20055;-70
2021/08/12 03:04:35;;;;;;;19.60;17.45;;;13.90;99.90;;;;;;4983990;28;20123;-70
2021/08/12 03:07:03;;;;;;;18.65;16.75;;;14.00;99.90;;;;;;4985343;28;20053;-70
2021/08/12 03:09:30;;;;;;;17.95;15.57;;;14.00;99.90;;;;;;4984233;28;20115;-70
2021/08/12 03:11:59;;;;;;;22.25;18.50;;;14.00;99.90;;;;;;4986814;28;20046;-70
2021/08/12 03:14:30;;;;;;;19.70;17.70;;;14.00;99.90;;;;;;4988312;28;20047;-70
2021/08/12 03:16:57;;;;;;;21.67;19.20;;;14.00;99.90;;;;;;4988170;28;20043;-70
2021/08/12 03:19:24;;;;;;;21.15;18.98;;;14.00;99.90;;;;;;4987793;28;20042;-70
2021/08/12 03:22:08;;;;;;;22.48;20.17;;;14.10;99.90;;;;;;4970661;28;20077;-70
2021/08/12 03:24:36;;;;;;;20.55;18.52;;;14.10;99.90;;;;;;4988474;28;20050;-70
2021/08/12 03:27:03;;;;;;;21.88;19.60;;;14.10;99.90;;;;;;4988155;28;20066;-70
2021/08/12 03:29:29;;;;;;;22.08;19.63;;;14.20;99.90;;;;;;4987602;28;20504;-70
2021/08/12 03:31:55;;;;;;;22.00;19.83;;;14.20;99.90;;;;;;4984891;28;20042;-70
2021/08/12 03:34:21;;;;;;;22.48;20.17;;;14.20;99.90;;;;;;4987235;28;20098;-70
2021/08/12 03:36:47;;;;;;;22.95;20.70;;;14.30;99.90;;;;;;4987782;28;20047;-70
2021/08/12 03:39:13;;;;;;;22.50;20.20;;;14.30;99.90;;;;;;4988979;28;20043;-70
2021/08/12 03:41:39;;;;;;;24.73;22.13;;;14.40;99.90;;;;;;4988784;28;20082;-70
2021/08/12 03:44:05;;;;;;;22.75;20.35;;;14.50;99.90;;;;;;4987687;28;20562;-70
2021/08/12 03:46:31;;;;;;;19.80;17.70;;;14.40;99.90;;;;;;4987832;28;20051;-70
2021/08/12 03:48:58;;;;;;;19.95;17.98;;;14.30;99.90;;;;;;4987128;28;20051;-70
2021/08/12 03:51:24;;;;;;;19.73;17.63;;;14.20;99.90;;;;;;4987785;28;20053;-70
2021/08/12 03:53:49;;;;;;;17.85;16.15;;;14.10;99.90;;;;;;4987131;28;20051;-70
2021/08/12 03:56:15;;;;;;;19.77;17.65;;;14.10;99.90;;;;;;4988205;28;20053;-70
2021/08/12 03:58:42;;;;;;;22.83;20.42;;;14.20;99.90;;;;;;4988323;28;20217;-70
2021/08/12 04:01:09;;;;;;;22.58;20.15;;;14.20;99.90;;;;;;4987539;28;20046;-70
2021/08/12 04:03:34;;;;;;;17.20;15.48;;;14.30;99.90;;;;;;4987252;28;20554;-70
2021/08/12 04:06:00;;;;;;;21.13;19.05;;;14.10;99.90;;;;;;4987155;28;20042;-70
2021/08/12 04:08:28;;;;;;;19.58;17.58;;;14.10;99.90;;;;;;4987715;28;20043;-70
2021/08/12 04:10:55;;;;;;;21.55;19.35;;;14.10;99.90;;;;;;4986971;28;20065;-70
2021/08/12 04:13:20;;;;;;;20.77;18.58;;;14.10;99.90;;;;;;4979209;28;20059;-70
2021/08/12 04:15:46;;;;;;;20.75;18.60;;;14.10;99.90;;;;;;4975293;28;20138;-70
2021/08/12 04:18:12;;;;;;;22.52;19.90;;;14.10;99.90;;;;;;4987100;28;20511;-69
2021/08/12 04:20:38;;;;;;;19.77;17.67;;;14.00;99.90;;;;;;4969316;28;20047;-70
2021/08/12 04:23:04;;;;;;;18.25;15.95;;;14.00;99.90;;;;;;4987940;28;20054;-69
2021/08/12 04:25:30;;;;;;;16.92;14.80;;;14.00;99.90;;;;;;4987650;28;20039;-70
2021/08/12 04:27:56;;;;;;;13.52;12.23;;;14.00;99.90;;;;;;4987733;28;20592;-70
2021/08/12 04:30:21;;;;;;;14.48;13.07;;;13.90;99.90;;;;;;4968459;28;20039;-70
2021/08/12 04:32:47;;;;;;;16.05;14.55;;;13.80;99.90;;;;;;4978827;28;20066;-70
2021/08/12 04:35:13;;;;;;;16.58;14.77;;;13.70;99.90;;;;;;4986142;28;20123;-70
2021/08/12 04:37:45;;;;;;;16.38;14.68;;;13.70;99.90;;;;;;4986608;28;20045;-70
2021/08/12 04:40:15;;;;;;;16.05;14.45;;;13.60;99.90;;;;;;4986683;28;20105;-70
2021/08/12 04:42:43;;;;;;;19.92;17.70;;;13.60;99.90;;;;;;4986545;28;20047;-70
2021/08/12 04:45:10;;;;;;;19.23;17.23;;;13.60;99.90;;;;;;4987071;28;20130;-70
2021/08/12 04:47:37;;;;;;;17.95;16.15;;;13.60;99.90;;;;;;4987750;28;20046;-70
2021/08/12 04:50:04;;;;;;;16.40;14.80;;;13.60;99.90;;;;;;4986453;28;20081;-70
2021/08/12 04:52:30;;;;;;;17.55;15.63;;;13.60;99.90;;;;;;4987892;28;20051;-70
2021/08/12 04:54:55;;;;;;;18.25;16.35;;;13.60;99.90;;;;;;4986931;28;20038;-70
2021/08/12 04:57:21;;;;;;;20.95;17.23;;;13.80;99.90;;;;;;4986160;28;20058;-70
2021/08/12 04:59:49;;;;;;;17.48;15.68;;;13.80;99.90;;;;;;4986530;28;20066;-70
2021/08/12 05:02:15;;;;;;;17.35;15.20;;;14.00;99.90;;;;;;4985673;28;20054;-70
2021/08/12 05:04:40;;;;;;;17.80;16.02;;;14.10;99.90;;;;;;4948940;28;20054;-68
2021/08/12 05:07:06;;;;;;;16.08;14.38;;;14.20;99.90;;;;;;4985248;28;20051;-68
2021/08/12 05:09:32;;;;;;;15.82;13.57;;;14.10;99.90;;;;;;4985364;28;20042;-68
2021/08/12 05:11:59;;;;;;;14.80;12.88;;;14.20;99.90;;;;;;4985141;28;20078;-68
2021/08/12 05:14:25;;;;;;;16.42;14.73;;;14.10;99.90;;;;;;4961011;28;20202;-67
2021/08/12 05:16:51;;;;;;;15.75;14.05;;;14.10;99.90;;;;;;4939779;28;20051;-67
2021/08/12 05:19:16;;;;;;;16.27;14.60;;;14.10;99.90;;;;;;4967797;28;20101;-67
2021/08/12 05:21:42;;;;;;;17.15;15.43;;;14.20;99.90;;;;;;4967739;28;20050;-66
2021/08/12 05:24:08;;;;;;;16.30;14.77;;;14.20;99.90;;;;;;4979653;28;20042;-67
2021/08/12 05:26:36;;;;;;;17.48;15.73;;;14.30;99.90;;;;;;4969090;28;20046;-68
2021/08/12 05:29:02;;;;;;;17.30;15.60;;;14.40;99.90;;;;;;4977652;28;20047;-67
2021/08/12 05:31:28;;;;;;;20.25;18.20;;;14.40;99.90;;;;;;4969490;28;20439;-68
2021/08/12 05:33:55;;;;;;;19.35;17.30;;;14.60;99.90;;;;;;4979703;28;20399;-67
2021/08/12 05:36:20;;;;;;;18.67;16.67;;;14.70;99.90;;;;;;4970082;28;20085;-67
2021/08/12 05:38:46;;;;;;;17.67;15.88;;;14.70;99.90;;;;;;4977615;28;20043;-67
2021/08/12 05:41:13;;;;;;;17.95;16.05;;;14.80;99.90;;;;;;4969435;28;20119;-67
2021/08/12 05:43:39;;;;;;;20.50;18.45;;;14.80;99.90;;;;;;4980015;28;20240;-66
2021/08/12 05:46:05;;;;;;;22.23;18.80;;;14.80;99.90;;;;;;4968493;28;20055;-67
2021/08/12 05:48:30;;;;;;;21.00;18.77;;;14.90;99.90;;;;;;4977036;28;20042;-66
2021/08/12 05:50:56;;;;;;;21.17;18.98;;;14.90;99.90;;;;;;4967497;28;24770;-66
2021/08/12 05:53:22;;;;;;;23.38;20.35;;;14.90;99.90;;;;;;4979653;28;20049;-66
2021/08/12 05:55:48;;;;;;;22.90;20.55;;;14.90;99.90;;;;;;4969614;28;20427;-67
2021/08/12 05:58:14;;;;;;;22.23;19.80;;;15.00;99.90;;;;;;4976957;28;20078;-66
2021/08/12 06:00:41;;;;;;;22.05;19.85;;;15.00;99.90;;;;;;4965174;28;20047;-67
2021/08/12 06:03:12;;;;;;;22.23;20.02;;;15.00;99.90;;;;;;4976705;28;20053;-66
2021/08/12 06:05:39;;;;;;;22.38;20.08;;;15.10;99.90;;;;;;4975022;28;20062;-66
2021/08/12 06:08:11;;;;;;;22.63;19.67;;;15.10;99.90;;;;;;4950542;28;20050;-66
2021/08/12 06:10:40;;;;;;;23.30;20.88;;;15.10;99.90;;;;;;4977754;28;20050;-68
2021/08/12 06:13:06;;;;;;;23.35;20.95;;;15.20;99.90;;;;;;4951924;28;20047;-68
2021/08/12 06:15:33;;;;;;;23.85;20.83;;;15.20;99.90;;;;;;4977475;28;20069;-67
2021/08/12 06:18:04;;;;;;;22.60;20.30;;;15.30;99.90;;;;;;4967311;28;20051;-67
2021/08/12 06:20:30;;;;;;;21.27;19.27;;;15.40;99.90;;;;;;4979476;28;20042;-67
2021/08/12 06:22:56;;;;;;;23.80;21.38;;;15.50;99.90;;;;;;4967053;28;20094;-68
2021/08/12 06:25:21;;;;;;;24.42;21.23;;;15.60;99.90;;;;;;4978637;28;20074;-68
2021/08/12 06:27:47;;;;;;;22.75;20.35;;;15.80;99.90;;;;;;4967648;28;20085;-69
2021/08/12 06:30:13;;;;;;;21.70;19.38;;;15.90;99.90;;;;;;4977892;28;20666;-68
2021/08/12 06:32:39;;;;;;;22.83;20.42;;;16.00;99.90;;;;;;4969926;28;20051;-69
2021/08/12 06:35:06;;;;;;;21.05;18.85;;;16.10;99.90;;;;;;4963788;28;20061;-68
2021/08/12 06:37:46;;;;;;;22.80;19.23;;;16.20;99.90;;;;;;4969096;28;20466;-75
2021/08/12 06:40:14;;;;;;;22.98;19.75;;;16.30;99.90;;;;;;4977732;28;20073;-68
2021/08/12 06:42:41;;;;;;;21.88;19.17;;;16.40;99.90;;;;;;4968739;28;20145;-68
2021/08/12 06:45:07;;;;;;;21.13;18.75;;;16.50;99.90;;;;;;4980662;28;20136;-67
2021/08/12 06:47:36;;;;;;;21.83;19.23;;;16.50;99.90;;;;;;4971407;28;20114;-67
2021/08/12 06:50:04;;;;;;;20.80;18.63;;;16.60;99.90;;;;;;4978485;28;20173;-68
2021/08/12 06:52:30;;;;;;;21.70;18.13;;;16.60;99.90;;;;;;4972284;28;20123;-69
2021/08/12 06:54:56;;;;;;;21.60;19.30;;;16.60;99.90;;;;;;4984008;28;20459;-69
2021/08/12 06:57:21;;;;;;;21.17;17.85;;;16.60;99.90;;;;;;4971144;28;20047;-69
2021/08/12 06:59:47;;;;;;;21.92;18.45;;;16.60;99.90;;;;;;4978608;28;20046;-68
2021/08/12 07:02:14;;;;;;;22.13;18.02;;;16.80;99.90;;;;;;4971361;28;20055;-67
2021/08/12 07:04:40;;;;;;;20.65;18.48;;;16.90;99.90;;;;;;4966275;28;20496;-68
2021/08/12 07:07:06;;;;;;;21.25;17.17;;;17.00;99.90;;;;;;4972745;28;20543;-67
2021/08/12 07:09:31;;;;;;;22.35;17.63;;;17.10;99.90;;;;;;4980585;28;20168;-68
2021/08/12 07:11:57;;;;;;;20.13;17.30;;;17.30;99.90;;;;;;4972299;28;20061;-68
2021/08/12 07:14:23;;;;;;;20.63;16.95;;;17.40;99.90;;;;;;4963936;28;21355;-68
2021/08/12 07:16:49;;;;;;;20.35;16.33;;;17.40;99.90;;;;;;4973580;28;20047;-68
2021/08/12 07:19:15;;;;;;;18.85;16.50;;;17.40;99.90;;;;;;4983461;28;20043;-68
2021/08/12 07:21:41;;;;;;;16.42;14.30;;;17.50;99.90;;;;;;4972385;28;20126;-70
2021/08/12 07:24:08;;;;;;;15.88;13.65;;;17.60;99.90;;;;;;4981190;28;20421;-70
2021/08/12 07:26:36;;;;;;;16.67;14.20;;;17.70;99.90;;;;;;4971217;28;20050;-70
2021/08/12 07:29:02;;;;;;;18.00;15.07;;;17.80;99.90;;;;;;4980383;28;20058;-75
2021/08/12 07:31:28;;;;;;;17.83;15.18;;;17.90;99.90;;;;;;4973721;28;20496;-70
2021/08/12 07:33:54;;;;;;;18.02;16.10;;;18.00;99.90;;;;;;4965776;28;20053;-70
2021/08/12 07:36:19;;;;;;;17.00;15.13;;;18.00;99.90;;;;;;4974466;28;20034;-70
2021/08/12 07:38:45;;;;;;;18.70;16.02;;;18.10;99.90;;;;;;4964518;28;20050;-70
2021/08/12 07:41:12;;;;;;;17.13;15.13;;;18.10;99.90;;;;;;4971497;28;20051;-71
2021/08/12 07:43:38;;;;;;;17.40;15.57;;;18.20;99.90;;;;;;4980318;28;20069;-70
2021/08/12 07:46:04;;;;;;;18.88;15.23;;;18.20;99.90;;;;;;4960822;28;20133;-71
2021/08/12 07:48:30;;;;;;;17.38;14.73;;;18.20;99.90;;;;;;4979702;28;20051;-70
2021/08/12 07:50:57;;;;;;;16.35;13.88;;;18.30;99.90;;;;;;4981194;28;20050;-70
2021/08/12 07:53:23;;;;;;;16.02;14.38;;;18.40;99.90;;;;;;4969827;28;20129;-70
2021/08/12 07:55:49;;;;;;;15.65;14.05;;;18.50;99.90;;;;;;4981203;28;20116;-68
2021/08/12 07:58:15;;;;;;;16.70;13.23;;;18.50;99.90;;;;;;4969093;28;20129;-68
2021/08/12 08:00:40;;;;;;;17.83;13.88;;;18.70;99.90;;;;;;4981935;28;20066;-68
2021/08/12 08:03:07;;;;;;;16.30;13.23;;;18.80;99.90;;;;;;4956488;28;20365;-67
2021/08/12 08:05:33;;;;;;;18.33;14.43;;;19.00;99.90;;;;;;4973100;28;20340;-67
2021/08/12 08:07:59;;;;;;;16.17;12.80;;;19.10;99.90;;;;;;4971563;28;20464;-66
2021/08/12 08:10:26;;;;;;;15.52;13.43;;;19.20;99.90;;;;;;4983530;28;20038;-67
2021/08/12 08:12:52;;;;;;;16.10;13.02;;;19.40;99.90;;;;;;4972566;28;20290;-68
2021/08/12 08:15:20;;;;;;;14.63;13.07;;;19.50;99.90;;;;;;4980553;28;20172;-67
2021/08/12 08:17:46;;;;;;;19.10;13.55;;;19.50;99.90;;;;;;4969547;28;20455;-68
2021/08/12 08:20:14;;;;;;;15.20;13.60;;;19.60;99.90;;;;;;4980520;28;20110;-67
2021/08/12 08:22:39;;;;;;;15.90;12.90;;;19.70;99.90;;;;;;4970631;28;20051;-67
2021/08/12 08:25:07;;;;;;;18.25;12.77;;;19.70;99.90;;;;;;4980367;28;20049;-68
2021/08/12 08:27:33;;;;;;;13.98;11.70;;;19.80;99.90;;;;;;4969196;28;20078;-67
2021/08/12 08:29:59;;;;;;;14.98;11.25;;;19.80;99.90;;;;;;4978716;28;20074;-67
2021/08/12 08:32:26;;;;;;;13.70;10.60;;;19.90;99.90;;;;;;4953519;28;20066;-69
2021/08/12 08:34:55;;;;;;;12.82;10.82;;;20.00;99.90;;;;;;4979833;28;20038;-69
2021/08/12 08:37:21;;;;;;;12.68;10.10;;;20.00;99.90;;;;;;4970624;28;20135;-68
2021/08/12 08:39:47;;;;;;;11.75;9.65;;;20.00;99.90;;;;;;4981163;28;20035;-69
2021/08/12 08:42:13;;;;;;;12.70;9.95;;;20.10;99.90;;;;;;4954330;28;20054;-68
2021/08/12 08:44:42;;;;;;;13.50;9.43;;;20.10;99.90;;;;;;4980813;28;20063;-67
2021/08/12 08:47:09;;;;;;;14.43;10.93;;;20.10;99.90;;;;;;4971603;28;20059;-67
2021/08/12 08:49:41;;;;;;;10.63;9.52;;;20.10;99.90;;;;;;4979385;28;20045;-67
2021/08/12 08:52:10;;;;;;;12.02;9.90;;;20.10;99.90;;;;;;4968843;28;20062;-69
2021/08/12 08:54:41;;;;;;;11.27;9.75;;;20.20;99.90;;;;;;4978055;28;20051;-68
2021/08/12 08:57:08;;;;;;;11.30;8.98;;;20.20;99.90;;;;;;4969221;28;20051;-68
2021/08/12 08:59:35;;;;;;;12.00;9.13;;;20.30;99.90;;;;;;4979261;28;20302;-68
2021/08/12 09:02:02;;;;;;;11.43;8.40;;;20.50;99.90;;;;;;4969624;28;20062;-67
2021/08/12 09:04:28;;;;;;;11.57;8.02;;;20.50;99.90;;;;;;4967262;28;20453;-68
2021/08/12 09:06:54;;;;;;;8.50;7.70;;;20.50;99.90;;;;;;4968842;28;20162;-68
2021/08/12 09:09:20;;;;;;;14.30;9.40;;;20.60;99.90;;;;;;4976371;28;20528;-67
2021/08/12 09:11:46;;;;;;;10.70;9.02;;;20.70;99.90;;;;;;4969221;28;20074;-68
2021/08/12 09:14:38;;;;;;;10.73;7.35;;;20.70;99.90;;;;;;4978171;28;20558;-69
2021/08/12 09:17:19;;;;;;;9.23;7.97;;;20.80;99.90;;;;;;4966170;28;20347;-68
2021/08/12 09:20:06;;;;;;;11.65;7.75;;;20.80;99.90;;;;;;4971562;28;20038;-69
2021/08/12 09:22:52;;;;;;;7.47;6.47;;;20.90;99.90;;;;;;4969376;28;20046;-69
2021/08/12 09:25:30;;;;;;;8.63;6.60;;;21.00;99.90;;;;;;4980328;28;20115;-68
2021/08/12 09:28:20;;;;;;;8.80;6.70;;;21.00;99.90;;;;;;4969543;28;20096;-68
2021/08/12 09:31:01;;;;;;;10.20;5.90;;;21.10;99.90;;;;;;4979081;28;20046;-68
2021/08/12 09:33:31;;;;;;;9.48;6.05;;;21.10;99.90;;;;;;4968793;28;20043;-68
2021/08/12 09:35:57;;;;;;;8.80;6.25;;;21.20;99.90;;;;;;4978096;28;20047;-68
2021/08/12 09:38:24;;;;;;;7.65;5.60;;;21.30;99.90;;;;;;4963594;28;20055;-68
2021/08/12 09:41:03;;;;;;;6.75;5.25;;;21.30;99.90;;;;;;5119558;27;20724;-68
2021/08/12 09:43:36;;;;;;;9.30;5.85;;;21.40;99.90;;;;;;5126769;27;20043;-67
2021/08/12 09:46:05;;;;;;;7.72;6.03;;;21.40;99.90;;;;;;5102926;28;20047;-67
2021/08/12 09:48:31;;;;;;;8.07;5.72;;;21.30;99.90;;;;;;5117603;28;20106;-68
2021/08/12 09:51:09;;;;;;;6.85;5.10;;;21.40;99.90;;;;;;5101196;28;20071;-68
2021/08/12 09:53:36;;;;;;;7.85;5.28;;;21.50;99.90;;;;;;5099831;28;20094;-68
2021/08/12 09:56:09;;;;;;;6.97;5.35;;;21.60;99.90;;;;;;5096192;28;20040;-68
2021/08/12 09:58:37;;;;;;;7.85;5.63;;;21.60;99.90;;;;;;5086111;28;20381;-69
2021/08/12 10:01:20;;;;;;;8.23;5.65;;;21.60;99.90;;;;;;5092161;28;20437;-66
2021/08/12 10:03:49;;;;;;;8.50;5.57;;;21.70;99.90;;;;;;5085501;27;20051;-67
2021/08/12 10:06:24;;;;;;;8.10;5.07;;;21.70;99.90;;;;;;5116262;27;20096;-67
2021/08/12 10:08:51;;;;;;;7.22;5.82;;;21.70;99.90;;;;;;5105322;28;20059;-67
2021/08/12 10:11:28;;;;;;;8.15;5.72;;;21.70;99.90;;;;;;5098696;28;20047;-68
2021/08/12 10:13:57;;;;;;;9.23;5.88;;;21.80;99.90;;;;;;5111252;27;20055;-67
2021/08/12 10:16:25;;;;;;;9.27;5.40;;;21.80;99.90;;;;;;5097604;28;20083;-67
2021/08/12 10:18:53;;;;;;;13.70;6.53;;;21.90;99.90;;;;;;5097636;28;20109;-67
2021/08/12 10:21:19;;;;;;;8.07;6.10;;;21.90;99.90;;;;;;5084952;28;20047;-67
2021/08/12 10:23:50;;;;;;;6.88;5.57;;;22.00;99.90;;;;;;5088760;28;20062;-67
2021/08/12 10:26:23;;;;;;;7.13;5.30;;;22.10;99.90;;;;;;5103999;28;20040;-68
2021/08/12 10:28:53;;;;;;;8.82;5.70;;;22.10;99.90;;;;;;5102531;28;20051;-67
2021/08/12 10:31:22;;;;;;;;;;;22.10;99.90;;;;;;5099179;28;20044;-67
2021/08/12 10:33:50;;;;;;;8.90;6.30;;;22.20;99.90;;;;;;5102055;28;19923;-67
2021/08/12 10:36:17;;;;;;;7.53;6.28;;;22.20;99.90;;;;;;5106025;28;20134;-67
2021/08/12 10:38:43;;;;;;;7.10;5.70;;;22.20;99.90;;;;;;5093042;28;20047;-67
2021/08/12 10:41:09;;;;;;;11.18;6.95;;;22.30;99.90;;;;;;5104192;28;20314;-66
2021/08/12 10:43:37;;;;;;;9.07;6.20;;;22.40;99.90;;;;;;5079503;27;20123;-67
2021/08/12 10:46:04;;;;;;;8.75;6.03;;;22.40;99.90;;;;;;5114165;28;20036;-66
2021/08/12 10:48:32;;;;;;;6.53;4.80;;;22.50;99.90;;;;;;5091368;28;20043;-66
2021/08/12 10:51:11;;;;;;;5.20;4.40;;;22.50;99.90;;;;;;5097841;28;20052;-67
2021/08/12 10:53:42;;;;;;;9.33;5.77;;;22.50;99.90;;;;;;5076535;28;20427;-66
2021/08/12 10:56:39;;;;;;;6.35;5.28;;;22.60;99.90;;;;;;5099687;28;20064;-67
2021/08/12 10:59:05;;;;;;;7.90;5.63;;;22.60;99.90;;;;;;5083416;28;20154;-67
2021/08/12 11:01:34;;;;;;;8.30;5.28;;;22.70;99.90;;;;;;5095295;28;20496;-67
2021/08/12 11:04:02;;;;;;;7.47;5.30;;;22.70;99.90;;;;;;5057613;28;20053;-67
2021/08/12 11:06:39;;;;;;;5.28;4.20;;;22.80;99.90;;;;;;5075907;28;20083;-66
2021/08/12 11:09:08;;;;;;;7.03;4.60;;;22.80;99.90;;;;;;5067179;28;20551;-67
2021/08/12 11:11:33;;;;;;;5.90;4.78;;;22.90;99.90;;;;;;5085072;28;20041;-66
2021/08/12 11:14:11;;;;;;;9.50;5.55;;;23.00;99.90;;;;;;5081049;28;20160;-66
2021/08/12 11:16:40;;;;;;;6.75;4.95;;;23.00;99.90;;;;;;5085932;28;20040;-66
2021/08/12 11:19:07;;;;;;;5.83;5.27;;;23.10;99.90;;;;;;5082211;28;20082;-66
2021/08/12 11:21:36;;;;;;;8.45;4.78;;;23.10;99.90;;;;;;5095342;28;20295;-66
2021/08/12 11:24:10;;;;;;;9.43;5.85;;;23.10;99.90;;;;;;5063411;28;20074;-67
2021/08/12 11:26:45;;;;;;;7.55;5.57;;;23.10;99.90;;;;;;5095782;27;20040;-66
2021/08/12 11:29:27;;;;;;;5.85;4.47;;;23.20;99.90;;;;;;5078401;28;20077;-67
2021/08/12 11:32:13;;;;;;;8.73;5.13;;;23.20;99.90;;;;;;5091331;28;20040;-67
2021/08/12 11:34:52;;;;;;;5.28;4.35;;;23.20;99.90;;;;;;5092092;28;20058;-67
2021/08/12 11:37:30;;;;;;;9.05;4.78;;;23.30;99.90;;;;;;5083521;28;20041;-67
2021/08/12 11:40:11;;;;;;;7.70;5.30;;;23.30;99.90;;;;;;5091838;28;20065;-67
2021/08/12 11:42:43;;;;;;;9.82;5.18;;;23.30;99.90;;;;;;5081598;28;20041;-67
2021/08/12 11:45:21;;;;;;;6.32;5.15;;;23.50;99.90;;;;;;5089856;28;20052;-67
2021/08/12 11:47:56;;;;;;;6.80;4.78;;;23.50;99.90;;;;;;5080695;28;20044;-67
2021/08/12 11:50:26;;;;;;;6.15;5.35;;;23.60;99.90;;;;;;5103306;28;20063;-67
2021/08/12 11:52:53;;;;;;;6.70;5.28;;;23.70;99.90;;;;;;5080243;28;20058;-67
2021/08/12 11:55:21;;;;;;;7.45;5.43;;;23.70;99.90;;;;;;5099369;28;20134;-67
2021/08/12 11:57:52;;;;;;;6.68;5.00;;;23.80;99.90;;;;;;5076864;28;20040;-66
2021/08/12 12:00:21;;;;;;;7.75;5.20;;;23.80;99.90;;;;;;5102856;28;20059;-67
2021/08/12 12:02:56;;;;;;;6.70;4.82;;;24.00;99.90;;;;;;5079053;28;20068;-67
2021/08/12 12:05:24;;;;;;;7.45;5.00;;;24.00;99.90;;;;;;5088013;28;20056;-67
2021/08/12 12:07:55;;;;;;;6.78;4.95;;;24.10;99.90;;;;;;5079149;28;20086;-67
2021/08/12 12:10:34;;;;;;;5.18;4.60;;;24.10;99.90;;;;;;5102257;28;20119;-67
2021/08/12 12:13:11;;;;;;;8.20;4.90;;;24.00;99.90;;;;;;5076540;28;20451;-68
2021/08/12 12:15:48;;;;;;;6.65;4.88;;;24.10;99.90;;;;;;5101556;28;20055;-68
2021/08/12 12:18:35;;;;;;;5.60;4.35;;;24.20;99.90;;;;;;5078052;28;20037;-67
2021/08/12 12:21:09;;;;;;;5.95;4.80;;;24.20;99.90;;;;;;5063213;28;20075;-67
2021/08/12 12:23:37;;;;;;;5.88;4.68;;;24.30;99.90;;;;;;5070440;28;20037;-68
2021/08/12 12:26:04;;;;;;;8.20;5.07;;;24.30;99.90;;;;;;5093760;28;20051;-67
2021/08/12 12:28:30;;;;;;;5.65;4.70;;;24.30;99.90;;;;;;5070027;28;20047;-69
2021/08/12 12:30:56;;;;;;;7.50;5.13;;;24.40;99.90;;;;;;5108408;28;20079;-68
2021/08/12 12:33:25;;;;;;;7.50;5.45;;;24.40;99.90;;;;;;5079353;28;20047;-79
2021/08/12 12:35:53;;;;;;;6.75;5.10;;;24.40;99.90;;;;;;5049616;28;20068;-66
2021/08/12 12:38:25;;;;;;;6.82;5.15;;;24.40;99.90;;;;;;5077516;28;20036;-69
2021/08/12 12:40:53;;;;;;;6.65;5.25;;;24.40;99.90;;;;;;5066583;28;20045;-66
2021/08/12 12:43:19;;;;;;;7.13;5.00;;;24.60;99.90;;;;;;5077687;28;20032;-72
2021/08/12 12:45:52;;;;;;;5.55;4.90;;;24.70;99.90;;;;;;5100439;28;20234;-71